Time;durP1;ratioP1;P1;durP2;ratioP2;P2;SDS_P1;SDS_P2;PMS_P1;PMS_P2;Temp;Humidity;BMP_temperature;BMP_pressure;BME280_temperature;BME280_humidity;BME280_pressure;Samples;Min_cycle;Max_cycle;Signal;HPM_P1;HPM_P2
2022/07/11 00:02:26;;;;;;;4.97;1.10;;;9.90;99.90;;;;;;5079736;28;20028;-75
2022/07/11 00:04:53;;;;;;;5.55;1.10;;;10.00;99.90;;;;;;5078103;28;20020;-72
2022/07/11 00:07:21;;;;;;;3.10;1.20;;;10.00;99.90;;;;;;5078125;28;20089;-76
2022/07/11 00:09:48;;;;;;;2.90;1.42;;;10.00;99.90;;;;;;5079021;28;20103;-66
2022/07/11 00:12:16;;;;;;;2.60;1.08;;;10.00;99.90;;;;;;5076590;28;20059;-66
2022/07/11 00:14:43;;;;;;;4.07;0.98;;;10.10;99.90;;;;;;5079070;28;20016;-70
2022/07/11 00:17:11;;;;;;;2.72;1.20;;;10.10;99.90;;;;;;5078578;28;20033;-66
2022/07/11 00:19:38;;;;;;;3.22;1.20;;;10.10;99.90;;;;;;5078853;28;20028;-65
2022/07/11 00:22:07;;;;;;;2.35;1.08;;;10.20;99.90;;;;;;5078887;28;20016;-76
2022/07/11 00:24:34;;;;;;;2.92;0.80;;;10.20;99.90;;;;;;5080100;28;20024;-68
2022/07/11 00:27:02;;;;;;;5.70;1.40;;;10.20;99.90;;;;;;5079302;28;20070;-71
2022/07/11 00:29:30;;;;;;;4.15;1.08;;;10.40;99.90;;;;;;5079694;28;21238;-76
2022/07/11 00:31:58;;;;;;;3.40;1.52;;;10.50;99.90;;;;;;5076472;28;20023;-77
2022/07/11 00:34:26;;;;;;;3.13;1.30;;;10.60;99.90;;;;;;5078935;28;20032;-76
2022/07/11 00:36:54;;;;;;;4.65;1.15;;;10.60;99.90;;;;;;5078387;28;20082;-77
2022/07/11 00:39:21;;;;;;;3.63;1.05;;;10.60;99.90;;;;;;5078835;28;20028;-67
2022/07/11 00:41:48;;;;;;;2.47;0.80;;;10.60;99.90;;;;;;5078911;28;20027;-79
2022/07/11 00:44:16;;;;;;;4.72;0.82;;;10.60;99.90;;;;;;5078608;28;20096;-66
2022/07/11 00:46:43;;;;;;;5.05;1.00;;;10.60;99.90;;;;;;5078587;28;20028;-66
2022/07/11 00:49:10;;;;;;;2.38;1.10;;;10.70;99.90;;;;;;5078546;28;20082;-77
2022/07/11 00:51:38;;;;;;;6.30;1.13;;;10.70;99.90;;;;;;5078290;28;20028;-76
2022/07/11 00:54:09;;;;;;;1.48;0.50;;;10.70;99.90;;;;;;5078574;28;20012;-77
2022/07/11 00:56:37;;;;;;;2.53;0.95;;;10.80;99.90;;;;;;5077662;28;20055;-76
2022/07/11 00:59:04;;;;;;;3.30;1.00;;;10.80;99.90;;;;;;5078321;28;20390;-77
2022/07/11 01:01:34;;;;;;;2.55;0.85;;;10.90;99.90;;;;;;5078465;28;20083;-66
2022/07/11 01:04:02;;;;;;;3.33;1.00;;;10.90;99.90;;;;;;5078250;28;20111;-77
2022/07/11 01:06:30;;;;;;;2.80;1.00;;;10.90;99.90;;;;;;5077967;28;20035;-73
2022/07/11 01:08:58;;;;;;;1.40;0.85;;;11.00;99.90;;;;;;5075790;28;20031;-67
2022/07/11 01:11:26;;;;;;;3.13;1.10;;;11.00;99.90;;;;;;5075025;28;20483;-76
2022/07/11 01:13:54;;;;;;;3.58;1.33;;;11.00;99.90;;;;;;5074747;28;20016;-76
2022/07/11 01:16:22;;;;;;;2.78;0.82;;;11.00;99.90;;;;;;5074709;28;20040;-65
2022/07/11 01:18:52;;;;;;;3.88;1.15;;;11.10;99.90;;;;;;5074469;28;20017;-76
2022/07/11 01:21:31;;;;;;;5.63;1.25;;;11.10;99.90;;;;;;5073192;28;20020;-77
2022/07/11 01:24:00;;;;;;;6.63;1.00;;;11.10;99.90;;;;;;5074848;28;20021;-65
2022/07/11 01:26:29;;;;;;;4.28;1.00;;;11.20;99.90;;;;;;5074861;28;20146;-75
2022/07/11 01:29:04;;;;;;;3.92;1.15;;;11.20;99.90;;;;;;5072112;28;20047;-66
2022/07/11 01:31:31;;;;;;;3.30;0.80;;;11.20;99.90;;;;;;5074617;28;20016;-66
2022/07/11 01:33:59;;;;;;;3.13;1.23;;;11.20;99.90;;;;;;5074891;28;20016;-66
2022/07/11 01:36:26;;;;;;;3.90;0.90;;;11.20;99.90;;;;;;5074850;28;20028;-77
2022/07/11 01:38:54;;;;;;;2.63;0.73;;;11.30;99.90;;;;;;5074316;28;20378;-67
2022/07/11 01:41:21;;;;;;;2.97;0.95;;;11.30;99.90;;;;;;5074589;28;20032;-72
2022/07/11 01:43:48;;;;;;;3.60;0.95;;;11.20;99.90;;;;;;5074711;28;20631;-77
2022/07/11 01:46:17;;;;;;;2.78;0.70;;;11.30;99.90;;;;;;5076597;28;20509;-67
2022/07/11 01:48:45;;;;;;;0.90;0.40;;;11.40;99.90;;;;;;5080334;28;20394;-66
2022/07/11 01:51:12;;;;;;;2.00;1.02;;;11.40;99.90;;;;;;5083276;28;20028;-67
2022/07/11 01:53:40;;;;;;;2.42;0.60;;;11.30;99.90;;;;;;5065601;28;20355;-69
2022/07/11 01:56:07;;;;;;;3.55;1.05;;;11.30;99.90;;;;;;5079364;28;20031;-76
2022/07/11 01:58:35;;;;;;;7.22;0.70;;;11.30;99.90;;;;;;5085320;28;20420;-76
2022/07/11 02:01:02;;;;;;;1.25;0.70;;;11.30;99.90;;;;;;5075150;28;20041;-69
2022/07/11 02:03:29;;;;;;;2.72;0.75;;;11.40;99.90;;;;;;5075710;28;20450;-68
2022/07/11 02:05:57;;;;;;;1.98;0.98;;;11.40;99.90;;;;;;5075877;28;20092;-70
2022/07/11 02:08:24;;;;;;;7.60;1.50;;;11.50;99.90;;;;;;5077630;28;20050;-76
2022/07/11 02:10:52;;;;;;;1.48;0.52;;;11.50;99.90;;;;;;5075096;28;20051;-71
2022/07/11 02:13:22;;;;;;;4.45;0.85;;;11.60;99.90;;;;;;5072778;28;20421;-69
2022/07/11 02:15:51;;;;;;;2.47;1.02;;;11.50;99.90;;;;;;5072681;28;20048;-71
2022/07/11 02:18:20;;;;;;;2.00;0.63;;;11.60;99.90;;;;;;5076937;28;20024;-77
2022/07/11 02:20:51;;;;;;;5.38;1.30;;;11.70;99.90;;;;;;5073430;28;20433;-74
2022/07/11 02:23:19;;;;;;;9.30;1.08;;;11.80;99.90;;;;;;5072589;28;20017;-76
2022/07/11 02:25:47;;;;;;;1.23;0.70;;;11.80;99.90;;;;;;5074461;28;20068;-77
2022/07/11 02:28:15;;;;;;;3.20;1.33;;;11.80;99.90;;;;;;5074332;28;20023;-73
2022/07/11 02:30:45;;;;;;;2.67;0.70;;;11.80;99.90;;;;;;5073189;28;20486;-75
2022/07/11 02:33:16;;;;;;;2.83;0.65;;;11.90;99.90;;;;;;5071913;28;20433;-70
2022/07/11 02:35:45;;;;;;;0.75;0.50;;;12.00;99.90;;;;;;5071320;28;20028;-76
2022/07/11 02:38:14;;;;;;;2.05;0.65;;;12.10;99.90;;;;;;5073079;28;20433;-77
2022/07/11 02:40:42;;;;;;;3.63;0.70;;;12.20;99.90;;;;;;5073133;28;20027;-74
2022/07/11 02:43:09;;;;;;;2.60;0.70;;;12.20;99.90;;;;;;5071451;28;20387;-76
2022/07/11 02:45:37;;;;;;;2.70;0.60;;;12.30;99.90;;;;;;5073918;28;20119;-78
2022/07/11 02:48:05;;;;;;;3.15;0.68;;;12.30;99.90;;;;;;5074102;28;20017;-72
2022/07/11 02:50:33;;;;;;;1.55;0.65;;;12.30;99.90;;;;;;5073948;28;20032;-69
2022/07/11 02:53:00;;;;;;;6.47;1.00;;;12.30;99.90;;;;;;5073867;28;20020;-68
2022/07/11 02:55:28;;;;;;;2.90;1.00;;;12.40;99.90;;;;;;5073854;28;20035;-78
2022/07/11 02:57:55;;;;;;;3.38;0.80;;;12.30;99.90;;;;;;5073255;28;20021;-75
2022/07/11 03:00:22;;;;;;;1.75;0.73;;;12.30;99.90;;;;;;5072947;28;20033;-77
2022/07/11 03:02:50;;;;;;;1.05;0.57;;;12.30;99.90;;;;;;5073029;28;20482;-78
2022/07/11 03:05:18;;;;;;;2.58;0.60;;;12.30;99.90;;;;;;5073162;28;20024;-77
2022/07/11 03:07:45;;;;;;;4.03;1.23;;;12.30;99.90;;;;;;5055457;28;20048;-78
2022/07/11 03:10:12;;;;;;;2.22;0.70;;;12.30;99.90;;;;;;5072923;28;20032;-68
2022/07/11 03:12:40;;;;;;;3.17;0.47;;;12.30;99.90;;;;;;5073801;28;20021;-78
2022/07/11 03:15:08;;;;;;;6.35;1.55;;;12.30;99.90;;;;;;5073020;28;20066;-71
2022/07/11 03:17:36;;;;;;;1.70;1.00;;;12.30;99.90;;;;;;5073215;28;20021;-77
2022/07/11 03:20:04;;;;;;;3.50;0.80;;;12.30;99.90;;;;;;5072614;28;20035;-67
2022/07/11 03:22:32;;;;;;;5.57;0.70;;;12.30;99.90;;;;;;5073174;28;20020;-68
2022/07/11 03:25:00;;;;;;;2.10;1.05;;;12.20;99.90;;;;;;5073068;28;20016;-68
2022/07/11 03:27:28;;;;;;;1.90;0.80;;;12.10;99.90;;;;;;5072956;28;20107;-78
2022/07/11 03:29:55;;;;;;;1.50;0.77;;;12.00;99.90;;;;;;5073273;28;20024;-77
2022/07/11 03:32:22;;;;;;;2.75;0.88;;;11.90;99.90;;;;;;5073301;28;20025;-78
2022/07/11 03:37:37;;;;;;;4.25;1.10;;;11.60;99.90;;;;;;5051888;28;20071;-77
2022/07/11 03:40:05;;;;;;;6.35;2.05;;;11.70;99.90;;;;;;5073204;28;20021;-71
2022/07/11 03:42:32;;;;;;;3.95;1.65;;;11.70;99.90;;;;;;5073261;28;20058;-79
2022/07/11 03:45:00;;;;;;;3.47;1.15;;;11.60;99.90;;;;;;5073069;28;20062;-78
2022/07/11 03:47:28;;;;;;;2.30;1.35;;;11.60;99.90;;;;;;5073488;28;20032;-76
2022/07/11 03:49:55;;;;;;;2.10;1.33;;;11.60;99.90;;;;;;5073048;28;20021;-78
2022/07/11 03:52:22;;;;;;;3.13;0.90;;;11.60;99.90;;;;;;5072135;28;20027;-78
2022/07/11 03:54:50;;;;;;;2.30;0.82;;;11.60;99.90;;;;;;5071310;28;20087;-75
2022/07/11 03:57:17;;;;;;;2.08;1.15;;;11.60;99.90;;;;;;5073991;28;20511;-75
2022/07/11 03:59:44;;;;;;;2.25;1.05;;;11.60;99.90;;;;;;5071795;28;20043;-79
2022/07/11 04:02:11;;;;;;;1.15;0.70;;;11.70;99.90;;;;;;5075047;28;20040;-71
2022/07/11 04:04:39;;;;;;;1.88;0.85;;;11.70;99.90;;;;;;5053343;28;20437;-79
2022/07/11 04:07:06;;;;;;;2.35;0.95;;;11.80;99.90;;;;;;5071450;28;20406;-79
2022/07/11 04:09:33;;;;;;;1.95;0.75;;;11.80;99.90;;;;;;5070658;28;20020;-78
2022/07/11 04:12:01;;;;;;;2.08;0.90;;;11.70;99.90;;;;;;5073765;28;20048;-75
2022/07/11 04:14:28;;;;;;;2.72;0.73;;;11.80;99.90;;;;;;5071885;28;20090;-78
2022/07/11 04:16:55;;;;;;;4.35;2.10;;;11.80;99.90;;;;;;5071662;28;20394;-75
2022/07/11 04:19:23;;;;;;;4.22;1.08;;;11.90;99.90;;;;;;5071391;28;20043;-76
2022/07/11 04:21:50;;;;;;;3.75;1.85;;;11.90;99.90;;;;;;5071727;28;20017;-74
2022/07/11 04:24:18;;;;;;;2.53;0.85;;;12.00;99.90;;;;;;5075392;28;20020;-68
2022/07/11 04:26:45;;;;;;;1.95;1.02;;;12.00;99.90;;;;;;5074477;28;20456;-78
2022/07/11 04:29:12;;;;;;;3.60;0.95;;;12.00;99.90;;;;;;5073416;28;20489;-79
2022/07/11 04:31:40;;;;;;;6.38;1.08;;;12.10;99.90;;;;;;5073156;28;20024;-80
2022/07/11 04:34:07;;;;;;;3.45;1.15;;;12.10;99.90;;;;;;5075688;28;20021;-70
2022/07/11 04:36:34;;;;;;;2.70;1.23;;;12.20;99.90;;;;;;5070581;28;20501;-79
2022/07/11 04:39:02;;;;;;;4.88;1.50;;;12.10;99.90;;;;;;5073240;28;20024;-69
2022/07/11 04:41:30;;;;;;;1.63;0.70;;;12.20;99.90;;;;;;5072271;28;20032;-78
2022/07/11 04:43:57;;;;;;;2.60;0.98;;;12.10;99.90;;;;;;5074328;28;20037;-79
2022/07/11 04:46:24;;;;;;;3.08;1.17;;;12.10;99.90;;;;;;5076758;28;20028;-68
2022/07/11 04:48:52;;;;;;;2.75;1.20;;;12.10;99.90;;;;;;5075998;28;20009;-76
2022/07/11 04:51:19;;;;;;;1.52;0.60;;;12.10;99.90;;;;;;5075829;28;20029;-69
2022/07/11 04:53:47;;;;;;;3.33;0.90;;;12.10;99.90;;;;;;5075922;28;20112;-68
2022/07/11 04:56:14;;;;;;;1.80;0.70;;;12.10;99.90;;;;;;5076655;28;20042;-79
2022/07/11 04:58:42;;;;;;;7.40;1.35;;;12.10;99.90;;;;;;5076950;28;20032;-76
2022/07/11 05:01:09;;;;;;;3.08;0.98;;;12.10;99.90;;;;;;5080816;28;20044;-75
2022/07/11 05:03:37;;;;;;;2.75;1.10;;;12.20;99.90;;;;;;5077188;28;20463;-76
2022/07/11 05:06:06;;;;;;;1.80;1.02;;;12.20;99.90;;;;;;5074467;28;20441;-80
2022/07/11 05:08:36;;;;;;;4.28;1.05;;;12.20;99.90;;;;;;5080777;28;20024;-68
2022/07/11 05:11:04;;;;;;;5.22;1.10;;;12.20;99.90;;;;;;5084485;28;20025;-68
2022/07/11 05:13:32;;;;;;;1.85;1.15;;;12.20;99.90;;;;;;5088256;28;20487;-68
2022/07/11 05:15:59;;;;;;;2.33;0.73;;;12.20;99.90;;;;;;5077158;28;20037;-68
2022/07/11 05:18:26;;;;;;;2.08;0.90;;;12.20;99.90;;;;;;5089797;28;20041;-78
2022/07/11 05:20:54;;;;;;;3.63;1.30;;;12.20;99.90;;;;;;5076075;28;20449;-78
2022/07/11 05:23:21;;;;;;;3.67;1.08;;;12.30;99.90;;;;;;5076202;28;20028;-71
2022/07/11 05:25:49;;;;;;;3.53;1.15;;;12.30;99.90;;;;;;5076413;28;20044;-80
2022/07/11 05:28:16;;;;;;;3.05;1.15;;;12.30;99.90;;;;;;5074204;28;20099;-76
2022/07/11 05:30:43;;;;;;;3.78;1.48;;;12.20;99.90;;;;;;5076133;28;20017;-72
2022/07/11 05:33:10;;;;;;;2.80;1.35;;;12.20;99.90;;;;;;5076092;28;20028;-72
2022/07/11 05:35:38;;;;;;;4.07;1.20;;;12.20;99.90;;;;;;5076193;28;20025;-76
2022/07/11 05:38:05;;;;;;;2.28;1.20;;;12.30;99.90;;;;;;5078468;28;20043;-69
2022/07/11 05:40:32;;;;;;;5.10;1.65;;;12.30;99.90;;;;;;5073543;28;20028;-78
2022/07/11 05:43:00;;;;;;;4.35;1.20;;;12.40;99.90;;;;;;5075810;28;20012;-78
2022/07/11 05:45:28;;;;;;;7.25;2.05;;;12.40;99.90;;;;;;5075860;28;20925;-71
2022/07/11 05:47:55;;;;;;;1.98;1.00;;;12.30;99.90;;;;;;5076678;28;20027;-77
2022/07/11 05:50:22;;;;;;;7.40;1.45;;;12.30;99.90;;;;;;5077136;28;20030;-71
2022/07/11 05:52:50;;;;;;;6.93;1.63;;;12.20;99.90;;;;;;5075603;28;20486;-73
2022/07/11 05:55:17;;;;;;;3.13;1.00;;;12.20;99.90;;;;;;5057112;28;20387;-74
2022/07/11 05:57:44;;;;;;;3.35;1.05;;;12.10;99.90;;;;;;5075545;28;20053;-78
2022/07/11 06:00:12;;;;;;;4.30;1.08;;;12.10;99.90;;;;;;5078395;28;20709;-76
2022/07/11 06:02:40;;;;;;;5.57;1.40;;;12.00;99.90;;;;;;5083191;28;20059;-77
2022/07/11 06:05:07;;;;;;;4.03;1.00;;;12.00;99.90;;;;;;5082807;28;20433;-78
2022/07/11 06:10:20;;;;;;;2.58;1.00;;;11.90;99.90;;;;;;5074533;28;20030;-75
2022/07/11 06:12:47;;;;;;;5.68;0.82;;;11.80;99.90;;;;;;5074585;28;20029;-69
2022/07/11 06:15:15;;;;;;;7.28;0.93;;;11.80;99.90;;;;;;5074292;28;20020;-69
2022/07/11 06:17:45;;;;;;;3.45;0.90;;;11.80;99.90;;;;;;5075061;28;20029;-68
2022/07/11 06:20:12;;;;;;;3.97;1.33;;;11.70;99.90;;;;;;5076784;28;20016;-78
2022/07/11 06:22:40;;;;;;;3.05;1.42;;;11.70;99.90;;;;;;5074594;28;20028;-78
2022/07/11 06:25:08;;;;;;;4.28;2.00;;;11.70;99.90;;;;;;5074827;28;20016;-79
2022/07/11 06:27:37;;;;;;;2.65;1.42;;;11.70;99.90;;;;;;5074433;28;20050;-81
2022/07/11 06:30:04;;;;;;;2.95;1.60;;;11.70;99.90;;;;;;5089663;28;20024;-80
2022/07/11 06:32:32;;;;;;;4.18;1.77;;;11.60;99.90;;;;;;5078826;28;20074;-75
2022/07/11 06:34:59;;;;;;;3.75;2.25;;;11.60;99.90;;;;;;5082380;28;20115;-77
2022/07/11 06:37:26;;;;;;;9.32;3.15;;;11.60;99.90;;;;;;5071348;28;20024;-70
2022/07/11 06:39:53;;;;;;;10.88;6.53;;;11.60;99.90;;;;;;5074544;28;20012;-69
2022/07/11 06:42:21;;;;;;;6.20;3.80;;;11.60;99.90;;;;;;5088535;28;20051;-72
2022/07/11 06:44:48;;;;;;;6.72;2.20;;;11.60;99.90;;;;;;5080599;28;20067;-76
2022/07/11 06:47:15;;;;;;;3.47;1.92;;;11.50;99.90;;;;;;5062962;28;20029;-74
2022/07/11 06:49:45;;;;;;;7.13;1.80;;;11.50;99.90;;;;;;5088634;28;20051;-69
2022/07/11 06:52:12;;;;;;;5.65;2.03;;;11.40;99.90;;;;;;5075278;28;20081;-73
2022/07/11 06:54:40;;;;;;;3.97;2.13;;;11.40;99.90;;;;;;5085466;28;20029;-74
2022/07/11 06:57:07;;;;;;;7.97;1.98;;;11.40;99.90;;;;;;5082926;28;20032;-73
2022/07/11 06:59:34;;;;;;;4.70;2.20;;;11.40;99.90;;;;;;5077909;28;20028;-77
2022/07/11 07:02:02;;;;;;;4.82;2.13;;;11.50;99.90;;;;;;5090534;28;20576;-77
2022/07/11 07:04:29;;;;;;;6.97;2.40;;;11.40;99.90;;;;;;5080149;28;20021;-77
2022/07/11 07:06:58;;;;;;;6.13;1.90;;;11.40;99.90;;;;;;5071995;28;20103;-67
2022/07/11 07:09:26;;;;;;;3.63;2.03;;;11.40;99.90;;;;;;5071897;28;20471;-75
2022/07/11 07:11:54;;;;;;;7.50;2.38;;;11.40;99.90;;;;;;5072809;28;20028;-67
2022/07/11 07:14:22;;;;;;;4.65;1.55;;;11.40;99.90;;;;;;5073676;28;20021;-68
2022/07/11 07:16:49;;;;;;;4.82;1.73;;;11.40;99.90;;;;;;5073718;28;20032;-75
2022/07/11 07:19:17;;;;;;;6.70;1.58;;;11.40;99.90;;;;;;5071055;28;20036;-79
2022/07/11 07:21:44;;;;;;;3.70;1.75;;;11.40;99.90;;;;;;5073366;28;20056;-77
2022/07/11 07:24:11;;;;;;;5.40;2.35;;;11.30;99.90;;;;;;5072896;28;20024;-68
2022/07/11 07:26:39;;;;;;;5.93;1.88;;;11.30;99.90;;;;;;5070687;28;20111;-67
2022/07/11 07:29:06;;;;;;;7.93;2.53;;;11.30;99.90;;;;;;5071319;28;20017;-67
2022/07/11 07:31:33;;;;;;;4.28;1.40;;;11.30;99.90;;;;;;5071031;28;20136;-67
2022/07/11 07:34:00;;;;;;;7.22;2.40;;;11.30;99.90;;;;;;5071798;28;20449;-67
2022/07/11 07:36:28;;;;;;;5.97;2.42;;;11.30;99.90;;;;;;5070671;28;20056;-68
2022/07/11 07:38:55;;;;;;;6.75;2.28;;;11.30;99.90;;;;;;5070831;28;20471;-69
2022/07/11 07:41:22;;;;;;;8.20;2.30;;;11.30;99.90;;;;;;5072510;28;20150;-67
2022/07/11 07:43:51;;;;;;;7.65;2.28;;;11.30;99.90;;;;;;5069788;28;20017;-68
2022/07/11 07:46:18;;;;;;;4.30;1.83;;;11.20;99.90;;;;;;5072743;28;20044;-67
2022/07/11 07:48:46;;;;;;;5.82;2.03;;;11.20;99.90;;;;;;5073198;28;20095;-77
2022/07/11 07:51:13;;;;;;;2.92;1.67;;;11.20;99.90;;;;;;5073279;28;20467;-67
2022/07/11 07:53:40;;;;;;;8.77;1.95;;;11.20;99.90;;;;;;5072812;28;20108;-71
2022/07/11 07:56:08;;;;;;;5.70;2.00;;;11.10;99.90;;;;;;5073095;28;20017;-68
2022/07/11 07:58:35;;;;;;;4.72;2.10;;;11.10;99.90;;;;;;5072936;28;20032;-66
2022/07/11 08:03:48;;;;;;;9.20;2.72;;;11.00;99.90;;;;;;5073802;28;20501;-67
2022/07/11 08:06:15;;;;;;;4.32;1.85;;;11.00;99.90;;;;;;5073048;28;20424;-67
2022/07/11 08:08:43;;;;;;;2.97;1.55;;;11.00;99.90;;;;;;5073120;28;20032;-67
2022/07/11 08:11:10;;;;;;;6.65;1.75;;;11.00;99.90;;;;;;5070251;28;20474;-68
2022/07/11 08:13:37;;;;;;;4.60;2.50;;;11.00;99.90;;;;;;5053308;28;20032;-67
2022/07/11 08:16:08;;;;;;;7.85;1.92;;;11.10;99.90;;;;;;5056038;28;20044;-69
2022/07/11 08:18:36;;;;;;;4.85;1.77;;;11.00;99.90;;;;;;5073427;28;20471;-79
2022/07/11 08:21:04;;;;;;;5.80;2.30;;;11.00;99.90;;;;;;5062418;28;20029;-66
2022/07/11 08:23:31;;;;;;;3.33;1.75;;;11.00;99.90;;;;;;5074916;28;20024;-69
2022/07/11 08:25:58;;;;;;;3.35;2.20;;;11.00;99.90;;;;;;5058487;28;20105;-79
2022/07/11 08:28:25;;;;;;;4.85;1.90;;;10.90;99.90;;;;;;5056560;28;20029;-79
2022/07/11 08:30:53;;;;;;;5.35;1.83;;;10.90;99.90;;;;;;5071949;28;20043;-67
2022/07/11 08:33:20;;;;;;;6.38;1.67;;;10.90;99.90;;;;;;5076238;28;20017;-78
2022/07/11 08:35:47;;;;;;;6.68;1.70;;;10.90;99.90;;;;;;5070739;28;20056;-67
2022/07/11 08:38:15;;;;;;;5.18;1.52;;;10.80;99.90;;;;;;5047701;28;20082;-67
2022/07/11 08:40:45;;;;;;;6.00;1.70;;;10.80;99.90;;;;;;5063918;28;20017;-67
2022/07/11 08:43:17;;;;;;;4.35;1.65;;;10.80;99.90;;;;;;5068039;28;20028;-67
2022/07/11 08:45:44;;;;;;;5.90;2.17;;;10.80;99.90;;;;;;5071554;28;20025;-66
2022/07/11 08:48:13;;;;;;;4.97;1.42;;;10.80;99.90;;;;;;5058390;28;20020;-67
2022/07/11 08:50:41;;;;;;;3.83;1.88;;;10.80;99.90;;;;;;5055393;28;20040;-67
2022/07/11 08:53:09;;;;;;;3.58;1.50;;;10.70;99.90;;;;;;5054844;28;20154;-80
2022/07/11 08:55:37;;;;;;;2.92;0.98;;;10.70;99.90;;;;;;5055282;28;20055;-66
2022/07/11 08:58:06;;;;;;;5.28;1.75;;;10.70;99.90;;;;;;5055285;28;20036;-66
2022/07/11 09:00:35;;;;;;;3.00;1.17;;;10.70;99.90;;;;;;5053794;28;20040;-67
2022/07/11 09:03:05;;;;;;;6.43;0.90;;;10.70;99.90;;;;;;5055637;28;20031;-67
2022/07/11 09:05:35;;;;;;;5.20;1.70;;;10.70;99.90;;;;;;5055104;28;20013;-67
2022/07/11 09:08:03;;;;;;;4.15;0.82;;;10.60;99.90;;;;;;5055261;28;20379;-66
2022/07/11 09:10:30;;;;;;;6.13;1.23;;;10.60;99.90;;;;;;5055125;28;20021;-81
2022/07/11 09:13:17;;;;;;;2.65;1.15;;;10.60;99.90;;;;;;5054321;28;20028;-76
2022/07/11 09:15:48;;;;;;;5.28;1.23;;;10.60;99.90;;;;;;5054363;28;20016;-72
2022/07/11 09:18:38;;;;;;;3.70;1.42;;;10.60;99.90;;;;;;5054011;28;20356;-67
2022/07/11 09:26:40;;;;;;;2.05;0.85;;;10.50;99.90;;;;;;5054203;28;20055;-67
2022/07/11 09:29:10;;;;;;;2.47;1.33;;;10.40;99.90;;;;;;5053509;28;20029;-80
2022/07/11 09:31:39;;;;;;;4.97;1.25;;;10.40;99.90;;;;;;5053026;28;20696;-68
2022/07/11 09:34:15;;;;;;;2.33;1.40;;;10.40;99.90;;;;;;5056554;28;20028;-80
2022/07/11 09:36:51;;;;;;;3.78;1.52;;;10.40;99.90;;;;;;5059012;28;20036;-75
2022/07/11 09:39:20;;;;;;;2.67;1.17;;;10.40;99.90;;;;;;5059805;28;20446;-68
2022/07/11 09:41:49;;;;;;;2.47;1.27;;;10.30;99.90;;;;;;5059596;28;20047;-80
2022/07/11 09:44:20;;;;;;;2.72;1.38;;;10.30;99.90;;;;;;5058628;28;20083;-77
2022/07/11 09:46:51;;;;;;;3.20;1.83;;;10.30;99.90;;;;;;5054164;28;20020;-67
2022/07/11 09:49:34;;;;;;;3.67;1.48;;;10.30;99.90;;;;;;5053118;28;20068;-73
2022/07/11 09:52:09;;;;;;;3.78;1.40;;;10.30;99.90;;;;;;5053444;28;20428;-70
2022/07/11 09:55:00;;;;;;;2.15;1.20;;;10.30;99.90;;;;;;5053464;28;20483;-66
2022/07/11 09:57:36;;;;;;;5.05;1.88;;;10.20;99.90;;;;;;5054352;28;20048;-80
2022/07/11 10:00:10;;;;;;;6.28;1.58;;;10.20;99.90;;;;;;5053771;28;20480;-79
2022/07/11 10:02:37;;;;;;;5.32;1.80;;;10.10;99.90;;;;;;5053418;28;20036;-76
2022/07/11 10:05:06;;;;;;;4.47;2.00;;;10.10;99.90;;;;;;5053882;28;20074;-75
2022/07/11 10:07:33;;;;;;;4.15;2.22;;;10.10;99.90;;;;;;5053147;28;20094;-76
2022/07/11 10:10:02;;;;;;;10.43;8.13;;;10.00;99.90;;;;;;5053617;28;20502;-67
2022/07/11 10:12:31;;;;;;;14.77;11.98;;;10.00;99.90;;;;;;5053977;28;20433;-68
2022/07/11 10:15:03;;;;;;;16.77;10.55;;;10.00;99.90;;;;;;5053774;28;20505;-68
2022/07/11 10:17:39;;;;;;;15.63;8.55;;;10.00;99.90;;;;;;5053364;28;20472;-75
2022/07/11 10:20:36;;;;;;;16.65;9.02;;;10.00;99.90;;;;;;5052622;28;20036;-77
2022/07/11 10:23:26;;;;;;;10.13;6.55;;;10.00;99.90;;;;;;5020444;28;20036;-67
2022/07/11 10:26:05;;;;;;;6.47;4.47;;;10.00;99.90;;;;;;5053296;28;20566;-67
2022/07/11 10:28:45;;;;;;;7.13;1.90;;;10.10;99.90;;;;;;5053361;28;20495;-68
2022/07/11 10:31:21;;;;;;;5.25;2.10;;;10.10;99.90;;;;;;5053087;28;20035;-68
2022/07/11 10:34:10;;;;;;;4.88;2.97;;;10.10;99.90;;;;;;5052859;28;20025;-68
2022/07/11 10:36:42;;;;;;;2.38;1.45;;;10.10;99.90;;;;;;5052930;28;20025;-77
2022/07/11 10:39:29;;;;;;;4.25;1.42;;;10.10;99.90;;;;;;5058350;28;20045;-77
2022/07/11 10:42:00;;;;;;;1.83;1.02;;;10.10;99.90;;;;;;5052931;28;20103;-69
2022/07/11 10:44:47;;;;;;;3.00;1.00;;;10.10;99.90;;;;;;5052573;28;20020;-74
2022/07/11 10:47:37;;;;;;;1.60;0.80;;;10.10;99.90;;;;;;5052334;28;20028;-74
2022/07/11 10:50:27;;;;;;;5.50;1.38;;;10.10;99.90;;;;;;5052529;28;20028;-74
2022/07/11 10:52:57;;;;;;;1.90;0.95;;;10.10;99.90;;;;;;5052625;28;20053;-78
2022/07/11 10:55:52;;;;;;;2.85;1.17;;;10.10;99.90;;;;;;5053132;28;20511;-68
2022/07/11 10:58:29;;;;;;;1.63;0.90;;;10.10;99.90;;;;;;5052954;28;20025;-77
2022/07/11 11:01:13;;;;;;;2.67;0.98;;;10.10;99.90;;;;;;5052737;28;20041;-76
2022/07/11 11:03:41;;;;;;;8.30;1.60;;;10.00;99.90;;;;;;5052016;28;20463;-72
2022/07/11 11:06:09;;;;;;;2.15;1.23;;;10.00;99.90;;;;;;5051511;28;20025;-75
2022/07/11 11:08:40;;;;;;;6.93;4.13;;;10.00;99.90;;;;;;5052394;28;20017;-77
2022/07/11 11:11:23;;;;;;;12.05;5.15;;;10.00;99.90;;;;;;5052578;28;20028;-69
2022/07/11 11:14:22;;;;;;;10.45;3.25;;;9.90;99.90;;;;;;5052149;28;20023;-75
2022/07/11 11:16:50;;;;;;;2.95;2.00;;;9.90;99.90;;;;;;5052296;28;20032;-70
2022/07/11 11:19:45;;;;;;;5.53;2.03;;;10.00;99.90;;;;;;5052172;28;20427;-77
2022/07/11 11:22:17;;;;;;;4.65;2.40;;;10.00;99.90;;;;;;5052275;28;20009;-68
2022/07/11 11:24:46;;;;;;;2.47;1.00;;;10.00;99.90;;;;;;5052240;28;20025;-75
2022/07/11 11:27:19;;;;;;;6.18;1.27;;;9.90;99.90;;;;;;5051641;28;20074;-68
2022/07/11 11:29:47;;;;;;;3.33;2.75;;;10.00;99.90;;;;;;5052381;28;20017;-68
2022/07/11 11:32:15;;;;;;;4.43;2.40;;;10.00;99.90;;;;;;5050868;28;20090;-73
2022/07/11 11:34:43;;;;;;;6.20;3.88;;;9.90;99.90;;;;;;5052303;28;20021;-68
2022/07/11 11:37:10;;;;;;;6.60;5.22;;;9.80;99.90;;;;;;5051696;28;20040;-69
2022/07/11 11:39:39;;;;;;;7.75;5.47;;;9.70;99.90;;;;;;5051917;28;20017;-76
2022/07/11 11:42:11;;;;;;;5.35;4.85;;;9.70;99.90;;;;;;5051151;28;20025;-78
2022/07/11 11:44:59;;;;;;;4.55;4.13;;;9.60;99.90;;;;;;5049289;28;20024;-78
2022/07/11 11:47:30;;;;;;;4.68;2.63;;;9.60;99.90;;;;;;5051924;28;20526;-70
2022/07/11 11:49:57;;;;;;;8.93;3.08;;;9.60;99.90;;;;;;5051263;28;20138;-70
2022/07/11 11:52:28;;;;;;;3.85;2.97;;;9.60;99.90;;;;;;5051217;28;20116;-72
2022/07/11 11:54:59;;;;;;;4.38;2.45;;;9.60;99.90;;;;;;5051051;28;20024;-76
2022/07/11 11:57:28;;;;;;;5.25;3.38;;;9.60;99.90;;;;;;5052319;28;20025;-70
2022/07/11 11:59:56;;;;;;;5.78;2.38;;;9.60;99.90;;;;;;5051461;28;20029;-69
2022/07/11 12:02:29;;;;;;;5.85;3.45;;;9.60;99.90;;;;;;5050560;28;20032;-69
2022/07/11 12:04:58;;;;;;;4.97;3.40;;;9.60;99.90;;;;;;5051762;28;20087;-75
2022/07/11 12:07:28;;;;;;;4.63;2.50;;;9.60;99.90;;;;;;5051910;28;20028;-70
2022/07/11 12:09:56;;;;;;;4.55;2.70;;;9.50;99.90;;;;;;5057288;28;20032;-77
2022/07/11 12:12:52;;;;;;;6.35;2.58;;;9.50;99.90;;;;;;5064482;28;20039;-78
2022/07/11 12:16:39;;;;;;;5.32;2.55;;;9.50;99.90;;;;;;5066687;28;20028;-69
2022/07/11 12:18:24;;;;;;;7.78;2.75;;;9.50;99.90;;;;;;5067698;28;20096;-70
2022/07/11 12:20:52;;;;;;;3.63;2.28;;;9.50;99.90;;;;;;5066391;28;20052;-77
2022/07/11 12:23:20;;;;;;;3.17;2.10;;;9.50;99.90;;;;;;5069519;28;20487;-75
2022/07/11 12:25:49;;;;;;;4.97;2.35;;;9.50;99.90;;;;;;5066852;28;20103;-78
2022/07/11 12:28:16;;;;;;;4.18;2.65;;;9.50;99.90;;;;;;5070671;28;20031;-71
2022/07/11 12:30:44;;;;;;;5.82;3.30;;;9.50;99.90;;;;;;5070195;28;20024;-68
2022/07/11 12:33:13;;;;;;;5.50;2.65;;;9.40;99.90;;;;;;5070433;28;20048;-72
2022/07/11 12:36:01;;;;;;;4.20;2.70;;;9.40;99.90;;;;;;5070041;28;20578;-69
2022/07/11 12:38:51;;;;;;;6.25;3.20;;;9.40;99.90;;;;;;5068793;28;20081;-69
2022/07/11 12:41:18;;;;;;;4.50;2.50;;;9.40;99.90;;;;;;5066471;28;20055;-77
2022/07/11 12:46:37;;;;;;;4.78;2.33;;;9.40;99.90;;;;;;5066551;28;20426;-76
2022/07/11 12:49:06;;;;;;;5.32;3.13;;;9.40;99.90;;;;;;5067861;28;20422;-69
2022/07/11 12:51:39;;;;;;;6.95;3.25;;;9.40;99.90;;;;;;5067177;28;20021;-77
2022/07/11 12:54:08;;;;;;;4.20;2.55;;;9.30;99.90;;;;;;5070575;28;20042;-77
2022/07/11 12:56:37;;;;;;;6.75;3.08;;;9.40;99.90;;;;;;5069975;28;20013;-70
2022/07/11 12:59:06;;;;;;;7.03;2.78;;;9.40;99.90;;;;;;5071220;28;20048;-77
2022/07/11 13:01:34;;;;;;;4.03;2.00;;;9.40;99.90;;;;;;5065590;28;20153;-77
2022/07/11 13:04:01;;;;;;;4.07;2.38;;;9.40;99.90;;;;;;5070442;28;20029;-68
2022/07/11 13:09:16;;;;;;;4.93;2.47;;;9.30;99.90;;;;;;5073589;28;20039;-76
2022/07/11 13:11:43;;;;;;;9.38;2.88;;;9.40;99.90;;;;;;5073212;28;20291;-76
2022/07/11 13:16:55;;;;;;;3.63;2.22;;;9.40;99.90;;;;;;5071059;28;20059;-67
2022/07/11 13:19:23;;;;;;;4.00;2.38;;;9.30;99.90;;;;;;5067632;28;20107;-71
2022/07/11 13:21:50;;;;;;;3.88;2.42;;;9.30;99.90;;;;;;5068641;28;20024;-68
2022/07/11 13:24:17;;;;;;;8.10;3.40;;;9.30;99.90;;;;;;5074013;28;20031;-68